createdAt,value
2022-09-24T00:01:42.371Z,100114.59
2022-09-24T00:04:13.414Z,100113.75
2022-09-24T00:06:45.185Z,100111.41
2022-09-24T00:09:13.623Z,100112.06
2022-09-24T00:11:48.496Z,100114.59
2022-09-24T00:14:16.937Z,100112.34
2022-09-24T00:16:45.645Z,100107.19
2022-09-24T00:19:19.778Z,100108.28
2022-09-24T00:21:46.411Z,100111.84
2022-09-24T00:24:34.853Z,100116.00
2022-09-24T00:27:03.178Z,100112.53
2022-09-24T00:29:33.899Z,100124.56
2022-09-24T00:32:00.675Z,100122.91
2022-09-24T00:34:27.417Z,100128.72
2022-09-24T00:36:54.157Z,100123.78
2022-09-24T00:39:20.816Z,100131.63
2022-09-24T00:41:49.030Z,100136.78
2022-09-24T00:44:37.613Z,100137.41
2022-09-24T00:47:04.583Z,100137.66
2022-09-24T00:49:31.216Z,100143.06
2022-09-24T00:51:57.787Z,100153.22
2022-09-24T00:54:26.778Z,100157.59
2022-09-24T00:56:54.351Z,100161.16
2022-09-24T00:59:23.918Z,100164.03
2022-09-24T01:01:52.013Z,100167.59
2022-09-24T01:04:24.356Z,100176.91
2022-09-24T01:06:51.007Z,100184.28
2022-09-24T01:09:19.085Z,100181.97
2022-09-24T01:12:23.546Z,100180.56
2022-09-24T01:15:05.435Z,100186.78
2022-09-24T01:17:50.933Z,100191.97
2022-09-24T01:20:44.301Z,100201.25
2022-09-24T01:23:18.129Z,100201.06
2022-09-24T01:26:19.505Z,100192.16
2022-09-24T01:29:23.313Z,100195.03
2022-09-24T01:31:54.081Z,100197.72
2022-09-24T01:34:27.004Z,100191.56
2022-09-24T01:36:55.732Z,100193.25
2022-09-24T01:39:23.048Z,100189.94
2022-09-24T01:41:50.042Z,100200.28
2022-09-24T01:44:18.596Z,100201.13
2022-09-24T01:46:45.351Z,100205.66
2022-09-24T01:49:12.017Z,100197.84
2022-09-24T01:51:52.015Z,100197.59
2022-09-24T01:54:33.045Z,100197.41
2022-09-24T01:57:04.427Z,100195.75
2022-09-24T01:59:50.619Z,100193.06
2022-09-24T02:02:20.173Z,100194.09
2022-09-24T02:04:52.198Z,100194.31
2022-09-24T02:07:58.981Z,100185.66
2022-09-24T02:10:30.162Z,100188.56
2022-09-24T02:13:01.657Z,100183.41
2022-09-24T02:15:37.512Z,100188.75
2022-09-24T02:18:12.930Z,100183.63
2022-09-24T02:20:41.680Z,100190.22
2022-09-24T02:23:11.011Z,100184.41
2022-09-24T02:25:41.803Z,100180.69
2022-09-24T02:28:08.447Z,100182.34
2022-09-24T02:30:40.998Z,100175.94
2022-09-24T02:33:29.246Z,100173.63
2022-09-24T02:35:56.932Z,100172.84
2022-09-24T02:38:24.055Z,100168.50
2022-09-24T02:40:51.289Z,100172.84
2022-09-24T02:43:17.913Z,100163.13
2022-09-24T02:45:44.627Z,100163.13
2022-09-24T02:48:18.801Z,100164.38
2022-09-24T02:50:46.090Z,100166.25
2022-09-24T02:53:12.641Z,100159.84
2022-09-24T02:55:39.199Z,100161.09
2022-09-24T02:58:05.773Z,100162.78
2022-09-24T03:00:32.289Z,100156.56
2022-09-24T03:02:59.233Z,100158.63
2022-09-24T03:05:25.901Z,100156.38
2022-09-24T03:07:52.467Z,100152.28
2022-09-24T03:10:19.152Z,100147.91
2022-09-24T03:12:50.201Z,100147.09
2022-09-24T03:15:16.823Z,100144.84
2022-09-24T03:17:43.355Z,100142.16
2022-09-24T03:20:09.990Z,100137.44
2022-09-24T03:22:36.678Z,100132.66
2022-09-24T03:25:08.304Z,100124.84
2022-09-24T03:27:37.112Z,100130.66
2022-09-24T03:30:22.362Z,100124.06
2022-09-24T03:32:48.885Z,100129.84
2022-09-24T03:35:15.703Z,100129.84
2022-09-24T03:37:47.079Z,100115.59
2022-09-24T03:40:15.750Z,100119.13
2022-09-24T03:42:42.398Z,100124.06
2022-09-24T03:45:09.514Z,100119.50
2022-09-24T03:47:42.545Z,100116.63
2022-09-24T03:50:12.121Z,100122.59
2022-09-24T03:52:39.359Z,100121.16
2022-09-24T03:55:12.489Z,100113.09
2022-09-24T03:57:39.117Z,100116.22
2022-09-24T04:00:06.157Z,100111.06
2022-09-24T04:02:35.066Z,100113.34
2022-09-24T04:05:01.739Z,100104.25
2022-09-24T04:07:30.397Z,100106.53
2022-09-24T04:09:57.017Z,100104.25
2022-09-24T04:12:23.754Z,100108.41
2022-09-24T04:14:50.355Z,100101.59
2022-09-24T04:17:17.534Z,100107.59
2022-09-24T04:19:48.774Z,100101.63
2022-09-24T04:22:15.373Z,100101.84
2022-09-24T04:24:41.929Z,100101.00
2022-09-24T04:27:08.501Z,100098.13
2022-09-24T04:29:35.061Z,100101.22
2022-09-24T04:32:06.648Z,100099.16
2022-09-24T04:34:33.312Z,100098.56
2022-09-24T04:36:59.945Z,100096.91
2022-09-24T04:39:27.385Z,100090.91
2022-09-24T04:41:54.385Z,100096.47
2022-09-24T04:44:23.789Z,100095.66
2022-09-24T04:46:50.654Z,100094.59
2022-09-24T04:49:17.314Z,100098.78
2022-09-24T04:51:46.104Z,100102.06
2022-09-24T04:54:14.842Z,100087.81
2022-09-24T04:56:48.048Z,100095.63
2022-09-24T04:59:14.742Z,100098.28
2022-09-24T05:01:41.374Z,100102.41
2022-09-24T05:04:09.595Z,100106.75
2022-09-24T05:06:36.285Z,100101.38
2022-09-24T05:09:02.865Z,100102.38
2022-09-24T05:11:29.481Z,100101.34
2022-09-24T05:13:56.358Z,100105.47
2022-09-24T05:16:23.173Z,100101.16
2022-09-24T05:18:49.925Z,100093.09
2022-09-24T05:21:16.900Z,100088.97
2022-09-24T05:23:43.545Z,100091.03
2022-09-24T05:26:28.771Z,100088.97
2022-09-24T05:28:55.465Z,100099.94
2022-09-24T05:31:22.203Z,100105.72
2022-09-24T05:33:49.412Z,100117.50
2022-09-24T05:36:19.635Z,100119.75
2022-09-24T05:38:46.364Z,100133.38
2022-09-24T05:41:13.040Z,100137.50
2022-09-24T05:43:41.221Z,100142.84
2022-09-24T05:46:08.237Z,100146.78
2022-09-24T05:48:35.030Z,100146.78
2022-09-24T05:51:02.220Z,100154.59
2022-09-24T05:53:28.924Z,100156.06
2022-09-24T05:55:55.693Z,100156.06
2022-09-24T05:58:22.442Z,100156.06
2022-09-24T06:00:49.229Z,100158.31
2022-09-24T06:03:17.085Z,100163.25
2022-09-24T06:05:46.500Z,100167.59
2022-09-24T06:08:15.399Z,100163.66
2022-09-24T06:10:43.100Z,100169.66
2022-09-24T06:13:11.718Z,100171.91
2022-09-24T06:15:38.933Z,100165.88
2022-09-24T06:18:05.855Z,100176.19
2022-09-24T06:20:33.597Z,100179.09
2022-09-24T06:23:00.510Z,100181.78
2022-09-24T06:25:28.729Z,100179.91
2022-09-24T06:28:03.175Z,100170.44
2022-09-24T06:30:35.515Z,100184.84
2022-09-24T06:33:07.326Z,100181.53
2022-09-24T06:35:35.848Z,100182.16
2022-09-24T06:38:06.456Z,100181.75
2022-09-24T06:40:36.965Z,100189.41
2022-09-24T06:43:07.578Z,100187.34
2022-09-24T06:45:34.629Z,100185.88
2022-09-24T06:48:02.425Z,100193.16
2022-09-24T06:50:30.580Z,100192.34
2022-09-24T06:52:57.617Z,100186.31
2022-09-24T06:55:24.787Z,100193.28
2022-09-24T06:58:01.894Z,100184.97
2022-09-24T07:00:28.525Z,100175.44
2022-09-24T07:02:55.178Z,100185.06
2022-09-24T07:05:21.810Z,100179.59
2022-09-24T07:07:48.414Z,100183.63
2022-09-24T07:10:17.327Z,100181.50
2022-09-24T07:12:44.170Z,100177.59
2022-09-24T07:15:11.165Z,100178.19
2022-09-24T07:17:37.903Z,100174.16
2022-09-24T07:20:05.119Z,100178.91
2022-09-24T07:22:31.788Z,100176.56
2022-09-24T07:24:58.437Z,100176.66
2022-09-24T07:27:25.582Z,100176.84
2022-09-24T07:29:52.237Z,100179.91
2022-09-24T07:32:19.178Z,100185.47
2022-09-24T07:34:45.973Z,100179.50
2022-09-24T07:37:12.904Z,100182.91
2022-09-24T07:39:41.740Z,100176.13
2022-09-24T07:42:08.424Z,100176.34
2022-09-24T07:44:36.432Z,100177.53
2022-09-24T07:47:03.200Z,100172.38
2022-09-24T07:49:32.335Z,100178.88
2022-09-24T07:52:01.639Z,100174.22
2022-09-24T07:54:30.069Z,100175.88
2022-09-24T07:56:56.916Z,100172.97
2022-09-24T07:59:23.753Z,100168.53
2022-09-24T08:01:52.938Z,100156.47
2022-09-24T08:04:19.686Z,100167.41
2022-09-24T08:06:47.694Z,100164.06
2022-09-24T08:09:16.388Z,100156.25
2022-09-24T08:11:43.492Z,100156.69
2022-09-24T08:14:12.592Z,100153.78
2022-09-24T08:16:40.656Z,100141.66
2022-09-24T08:19:13.693Z,100154.59
2022-09-24T08:21:40.433Z,100151.09
2022-09-24T08:24:07.117Z,100152.28
2022-09-24T08:26:33.732Z,100152.91
2022-09-24T08:29:00.419Z,100155.88
2022-09-24T08:31:27.749Z,100151.34
2022-09-24T08:33:54.609Z,100157.41
2022-09-24T08:36:21.399Z,100144.31
2022-09-24T08:38:48.050Z,100147.31
2022-09-24T08:41:14.673Z,100149.44
2022-09-24T08:43:59.732Z,100145.13
2022-09-24T08:46:51.710Z,100148.06
2022-09-24T08:49:30.356Z,100145.13
2022-09-24T08:52:19.928Z,100152.16
2022-09-24T08:54:47.650Z,100149.34
2022-09-24T08:57:18.053Z,100157.31
2022-09-24T08:59:47.573Z,100165.03
2022-09-24T09:02:23.368Z,100169.81
2022-09-24T09:05:08.497Z,100171.59
2022-09-24T09:07:50.489Z,100174.13
2022-09-24T09:10:27.716Z,100166.25
2022-09-24T09:13:07.268Z,100170.19
2022-09-24T09:15:41.428Z,100157.97
2022-09-24T09:18:16.656Z,100153.41
2022-09-24T09:20:47.630Z,100150.25
2022-09-24T09:23:31.046Z,100153.59
2022-09-24T09:25:59.775Z,100138.81
2022-09-24T09:28:29.710Z,100130.50
2022-09-24T09:30:56.693Z,100123.22
2022-09-24T09:33:38.628Z,100123.22
2022-09-24T09:36:20.452Z,100122.41
2022-09-24T09:39:06.111Z,100115.03
2022-09-24T09:41:45.226Z,100110.22
2022-09-24T09:44:26.531Z,100112.69
2022-09-24T09:47:32.894Z,100105.19
2022-09-24T09:50:12.380Z,100105.97
2022-09-24T09:52:39.939Z,100102.63
2022-09-24T09:55:07.259Z,100095.59
2022-09-24T09:57:36.978Z,100100.94
2022-09-24T10:00:06.483Z,100109.84
2022-09-24T10:02:42.174Z,100107.84
2022-09-24T10:05:24.833Z,100100.59
2022-09-24T10:07:53.785Z,100105.13
2022-09-24T10:10:24.154Z,100102.47
2022-09-24T10:13:11.913Z,100094.16
2022-09-24T10:16:05.274Z,100094.16
2022-09-24T10:18:34.877Z,100098.75
2022-09-24T10:21:04.570Z,100109.28
2022-09-24T10:23:38.199Z,100111.75
2022-09-24T10:26:05.773Z,100108.34
2022-09-24T10:28:53.070Z,100108.59
2022-09-24T10:31:24.929Z,100113.28
2022-09-24T10:33:55.658Z,100114.22
2022-09-24T10:36:23.288Z,100110.81
2022-09-24T10:39:12.213Z,100111.97
2022-09-24T10:41:49.779Z,100113.16
2022-09-24T10:44:20.155Z,100117.03
2022-09-24T10:47:05.746Z,100118.78
2022-09-24T10:49:42.707Z,100114.09
2022-09-24T10:52:31.142Z,100122.78
2022-09-24T10:55:17.986Z,100118.78
2022-09-24T10:58:03.530Z,100117.03
2022-09-24T11:01:03.446Z,100113.28
2022-09-24T11:04:12.687Z,100119.50
2022-09-24T11:07:11.953Z,100118.69
2022-09-24T11:09:44.589Z,100122.66
2022-09-24T11:12:20.629Z,100114.09
2022-09-24T11:15:19.447Z,100118.31
2022-09-24T11:18:08.297Z,100113.28
2022-09-24T11:20:40.739Z,100106.25
2022-09-24T11:23:16.496Z,100117.25
2022-09-24T11:26:01.807Z,100119.38
2022-09-24T11:28:41.341Z,100120.41
2022-09-24T11:31:14.864Z,100130.63
2022-09-24T11:34:00.916Z,100122.31
2022-09-24T11:36:33.911Z,100123.94
2022-09-24T11:39:03.483Z,100129.31
2022-09-24T11:41:39.144Z,100127.94
2022-09-24T11:44:25.744Z,100126.16
2022-09-24T11:47:14.198Z,100130.84
2022-09-24T11:49:43.772Z,100138.94
2022-09-24T11:52:21.251Z,100132.84
2022-09-24T11:55:13.072Z,100132.03
2022-09-24T11:57:43.414Z,100125.81
2022-09-24T12:00:20.265Z,100118.66
2022-09-24T12:02:53.529Z,100117.63
2022-09-24T12:05:26.019Z,100128.38
2022-09-24T12:08:07.812Z,100125.09
2022-09-24T12:10:42.500Z,100129.78
2022-09-24T12:13:22.737Z,100127.91
2022-09-24T12:15:54.085Z,100128.63
2022-09-24T12:18:27.819Z,100124.41
2022-09-24T12:20:54.468Z,100125.59
2022-09-24T12:23:28.110Z,100125.59
2022-09-24T12:25:57.399Z,100117.38
2022-09-24T12:28:43.816Z,100117.03
2022-09-24T12:31:45.566Z,100114.09
2022-09-24T12:34:18.724Z,100106.00
2022-09-24T12:37:02.489Z,100115.03
2022-09-24T12:39:37.283Z,100111.03
2022-09-24T12:42:07.178Z,100111.25
2022-09-24T12:44:52.979Z,100111.16
2022-09-24T12:47:31.607Z,100108.47
2022-09-24T12:50:01.153Z,100117.38
2022-09-24T12:52:41.041Z,100106.13
2022-09-24T12:55:28.769Z,100102.63
2022-09-24T12:57:59.537Z,100108.25
2022-09-24T13:00:32.293Z,100111.72
2022-09-24T13:03:00.185Z,100110.28
2022-09-24T13:05:33.988Z,100107.59
2022-09-24T13:08:03.235Z,100111.47
2022-09-24T13:10:31.971Z,100112.75
2022-09-24T13:13:02.469Z,100104.22
2022-09-24T13:15:37.186Z,100107.34
2022-09-24T13:18:11.665Z,100110.25
2022-09-24T13:20:40.233Z,100097.88
2022-09-24T13:23:19.799Z,100097.97
2022-09-24T13:25:57.757Z,100101.00
2022-09-24T13:28:38.408Z,100092.91
2022-09-24T13:31:16.342Z,100098.63
2022-09-24T13:33:45.490Z,100096.19
2022-09-24T13:36:35.855Z,100089.91
2022-09-24T13:39:21.402Z,100086.91
2022-09-24T13:42:25.680Z,100085.06
2022-09-24T13:45:03.338Z,100077.44
2022-09-24T13:47:43.677Z,100077.84
2022-09-24T13:50:17.739Z,100076.13
2022-09-24T13:52:48.118Z,100075.94
2022-09-24T13:55:17.824Z,100073.91
2022-09-24T13:57:45.785Z,100068.53
2022-09-24T14:00:26.294Z,100072.63
2022-09-24T14:03:06.155Z,100067.78
2022-09-24T14:05:36.944Z,100070.63
2022-09-24T14:08:08.891Z,100069.28
2022-09-24T14:10:36.237Z,100067.03
2022-09-24T14:13:09.007Z,100071.88
2022-09-24T14:15:36.444Z,100068.00
2022-09-24T14:18:03.465Z,100085.06
2022-09-24T14:20:34.360Z,100076.81
2022-09-24T14:23:01.725Z,100077.16
2022-09-24T14:25:34.425Z,100074.69
2022-09-24T14:28:02.657Z,100078.06
2022-09-24T14:30:30.429Z,100073.63
2022-09-24T14:33:03.712Z,100074.00
2022-09-24T14:35:32.269Z,100079.06
2022-09-24T14:38:04.519Z,100074.94
2022-09-24T14:40:40.031Z,100076.25
2022-09-24T14:43:17.783Z,100080.22
2022-09-24T14:45:45.538Z,100086.56
2022-09-24T14:48:31.430Z,100086.09
2022-09-24T14:50:58.225Z,100094.03
2022-09-24T14:53:28.017Z,100092.31
2022-09-24T14:55:56.056Z,100093.81
2022-09-24T14:58:28.686Z,100095.59
2022-09-24T15:01:08.241Z,100093.25
2022-09-24T15:03:39.264Z,100091.03
2022-09-24T15:06:12.204Z,100091.13
2022-09-24T15:08:38.845Z,100094.44
2022-09-24T15:11:06.092Z,100097.44
2022-09-24T15:13:33.554Z,100102.63
2022-09-24T15:16:26.738Z,100107.50
2022-09-24T15:19:13.403Z,100108.78
2022-09-24T15:21:40.261Z,100107.88
2022-09-24T15:24:06.980Z,100112.53
2022-09-24T15:26:34.908Z,100119.09
2022-09-24T15:29:02.257Z,100123.34
2022-09-24T15:31:29.710Z,100120.66
2022-09-24T15:33:56.447Z,100121.13
2022-09-24T15:36:23.961Z,100117.91
2022-09-24T15:38:52.237Z,100122.94
2022-09-24T15:41:19.891Z,100122.59
2022-09-24T15:43:47.654Z,100123.44
2022-09-24T15:46:14.402Z,100131.28
2022-09-24T15:48:41.106Z,100128.09
2022-09-24T15:51:13.830Z,100133.72
2022-09-24T15:53:42.242Z,100127.84
2022-09-24T15:56:08.961Z,100125.28
2022-09-24T15:58:35.666Z,100123.25
2022-09-24T16:01:03.090Z,100124.00
2022-09-24T16:03:33.144Z,100127.66
2022-09-24T16:06:00.141Z,100122.00
2022-09-24T16:08:27.209Z,100124.50
2022-09-24T16:10:53.904Z,100126.81
2022-09-24T16:13:23.280Z,100133.34
2022-09-24T16:15:54.605Z,100132.38
2022-09-24T16:18:25.918Z,100135.78
2022-09-24T16:20:52.683Z,100142.41
2022-09-24T16:23:19.332Z,100140.84
2022-09-24T16:25:57.118Z,100145.66
2022-09-24T16:28:24.478Z,100151.41
2022-09-24T16:30:51.336Z,100153.84
2022-09-24T16:33:18.364Z,100166.47
2022-09-24T16:35:45.080Z,100169.53
2022-09-24T16:38:12.206Z,100172.53
2022-09-24T16:40:39.126Z,100175.91
2022-09-24T16:43:05.776Z,100173.31
2022-09-24T16:45:33.225Z,100177.06
2022-09-24T16:48:00.035Z,100180.19
2022-09-24T16:50:28.917Z,100181.44
2022-09-24T16:52:55.687Z,100183.16
2022-09-24T16:55:25.804Z,100184.06
2022-09-24T16:57:52.895Z,100182.06
2022-09-24T17:03:38.276Z,100197.00
2022-09-24T17:17:30.457Z,100201.25
2022-09-24T17:20:23.774Z,100204.53
2022-09-24T17:23:00.313Z,100208.50
2022-09-24T17:26:30.857Z,100208.97
2022-09-24T17:29:33.318Z,100214.09
2022-09-24T17:32:10.334Z,100207.69
2022-09-24T17:35:00.321Z,100216.59
2022-09-24T17:38:22.708Z,100215.00
2022-09-24T17:41:23.788Z,100215.19
2022-09-24T17:46:56.036Z,100219.97
2022-09-24T17:52:30.055Z,100214.22
2022-09-24T17:58:07.674Z,100223.78
2022-09-24T18:00:34.491Z,100222.75
2022-09-24T18:03:05.888Z,100222.16
2022-09-24T18:06:15.839Z,100227.53
2022-09-24T18:09:04.265Z,100231.47
2022-09-24T18:14:29.007Z,100234.22
2022-09-24T18:16:59.989Z,100241.84
2022-09-24T18:19:33.434Z,100239.81
2022-09-24T18:22:14.166Z,100249.09
2022-09-24T18:24:51.584Z,100249.69
2022-09-24T18:27:39.775Z,100251.16
2022-09-24T18:31:02.530Z,100250.19
2022-09-24T18:33:59.896Z,100262.88
2022-09-24T18:37:15.934Z,100249.63
2022-09-24T18:40:23.462Z,100256.38
2022-09-24T18:43:53.781Z,100254.97
2022-09-24T18:47:02.778Z,100261.00
2022-09-24T18:49:55.501Z,100259.34
2022-09-24T18:52:29.913Z,100256.84
2022-09-24T19:02:55.976Z,100266.22
2022-09-24T19:05:26.731Z,100266.22
2022-09-24T19:08:24.023Z,100272.25
2022-09-24T19:14:45.991Z,100281.56
2022-09-24T19:17:49.052Z,100275.97
2022-09-24T19:20:31.268Z,100278.06
2022-09-24T19:23:30.410Z,100281.56
2022-09-24T19:29:36.159Z,100279.09
2022-09-24T19:32:21.968Z,100280.50
2022-09-24T19:34:51.765Z,100287.38
2022-09-24T19:37:49.131Z,100278.25
2022-09-24T19:40:25.974Z,100287.00
2022-09-24T19:43:43.210Z,100287.38
2022-09-24T19:46:17.384Z,100288.63
2022-09-24T19:49:10.297Z,100287.19
2022-09-24T19:51:55.253Z,100289.06
2022-09-24T20:00:25.260Z,100294.47
2022-09-24T20:02:52.439Z,100302.34
2022-09-24T20:05:19.603Z,100302.78
2022-09-24T20:07:46.479Z,100309.00
2022-09-24T20:10:47.506Z,100304.69
2022-09-24T20:13:17.174Z,100299.06
2022-09-24T20:16:04.129Z,100311.91
2022-09-24T20:18:50.154Z,100308.84
2022-09-24T20:21:20.191Z,100310.50
2022-09-24T20:24:01.789Z,100305.97
2022-09-24T20:26:56.219Z,100301.81
2022-09-24T20:33:47.858Z,100307.00
2022-09-24T20:36:24.783Z,100305.19
2022-09-24T20:39:26.955Z,100310.72
2022-09-24T20:42:15.716Z,100305.00
2022-09-24T20:44:48.862Z,100311.16
2022-09-24T20:47:18.602Z,100311.78
2022-09-24T20:50:01.668Z,100309.09
2022-09-24T20:57:33.464Z,100312.19
2022-09-24T21:03:44.911Z,100322.94
2022-09-24T21:06:29.989Z,100319.63
2022-09-24T21:08:57.064Z,100320.00
2022-09-24T21:11:34.963Z,100316.13
2022-09-24T21:14:26.484Z,100315.31
2022-09-24T21:16:55.349Z,100326.03
2022-09-24T21:19:51.473Z,100313.84
2022-09-24T21:22:21.734Z,100315.06
2022-09-24T21:26:03.014Z,100320.84
2022-09-24T21:28:37.524Z,100323.97
2022-09-24T21:34:20.940Z,100328.06
2022-09-24T21:37:25.312Z,100332.03
2022-09-24T21:40:02.939Z,100327.69
2022-09-24T21:43:45.457Z,100331.00
2022-09-24T21:46:19.435Z,100330.16
2022-09-24T21:48:59.303Z,100323.38
2022-09-24T21:51:36.683Z,100329.78
2022-09-24T21:54:26.979Z,100318.00
2022-09-24T22:00:43.902Z,100331.44
2022-09-24T22:03:18.272Z,100328.75
2022-09-24T22:06:02.422Z,100322.97
2022-09-24T22:08:49.188Z,100316.34
2022-09-24T22:11:55.683Z,100316.97
2022-09-24T22:15:25.126Z,100320.28
2022-09-24T22:18:13.539Z,100318.66
2022-09-24T22:24:00.142Z,100315.94
2022-09-24T22:26:38.406Z,100312.25
2022-09-24T22:29:13.327Z,100312.84
2022-09-24T22:36:27.688Z,100313.88
2022-09-24T22:42:18.802Z,100311.00
2022-09-24T22:46:52.171Z,100311.22
2022-09-24T22:49:20.439Z,100323.19
2022-09-24T22:55:53.592Z,100320.94
2022-09-24T22:58:54.149Z,100320.09
2022-09-24T23:01:38.231Z,100324.03
2022-09-24T23:07:28.351Z,100311.22
2022-09-24T23:13:35.563Z,100314.75
2022-09-24T23:23:46.669Z,100305.88
2022-09-24T23:30:16.347Z,100313.31
2022-09-24T23:32:44.347Z,100309.34
2022-09-24T23:35:26.718Z,100306.94
2022-09-24T23:38:11.188Z,100305.47
2022-09-24T23:44:25.829Z,100302.00
2022-09-24T23:47:24.293Z,100301.63
2022-09-24T23:50:25.115Z,100298.50
2022-09-24T23:52:52.102Z,100305.91
2022-09-24T23:55:52.296Z,100300.34
2022-09-24T23:58:38.467Z,100300.78
